Search for airport 
image banner adimage banner ad
image banner ad

DAUO - El Oued / Guemar

Located in El Oued, Algeria

ICAO - DAUO, IATA - ELU

Data provided by Airmate  

General information

Coordinates: N33°30'47" E6°46'57"
Elevation is 203 feet MSL.
 
Rated:
View ratings: [VIEW]


View others Airports in El Oued Province

Operational data

Open for public use
Current time UTC:
Current local time:
Weather
METAR: DAUO 130000Z 09007KT CAVOK 32/15 Q1014
TAF: TAF DAUO 122300Z 1300/1309 06008KT CAVOK
View NOTAMs / SUP AIP / TFR affecting this airport [VIEW]
Communications frequencies: [VIEW]

Runways:

RWY identifierQFULength (ft)Width (ft)SurfaceLDA (ft)
13130°9843148
31310°9843148
0220°656298ASP
20200°656298

Airport contact information

Address: El Oued Algeria

Satellite view of DAUO